Terminal Aerodrome Forecast
Issued by NWS

Current Version | Previous Version | Graphics & Text | Print | Product List | Glossary On
Versions: 1 2 3 4 5 6 7 8 9 10 11 12 13 14 15 16 17 18 19
000
FTUS41 KILN 301600 AAA
TAFLCK
TAF AMD
KLCK 301615Z 3016/0112 35009KT P6SM OVC040
      TEMPO 3016/3017 BKN015
     FM301800 35012G18KT P6SM VCSH OVC040
      TEMPO 3021/0101 5SM -SHRA BR OVC025
     FM010100 36010KT P6SM OVC035
     FM010600 35010KT P6SM OVC018=

USA.gov is the U.S. government's official web portal to all federal, state and local government web resources and services.